Stations météo

Publicité
Besancon, France (7288): Température de l'air & dewpoint: 15.10.2019 04:00:00 - 21.10.2019 04:00:00 (CEST)Besancon, France (7288): Température de l'air 5cm: 15.10.2019 04:00:00 - 21.10.2019 04:00:00 (CEST)Besancon, France (7288): Température de l'air -20cm & Température de l'air -100cm: 15.10.2019 04:00:00 - 21.10.2019 04:00:00 (CEST)Besancon, France (7288): Vitesse du vent & gusts: 15.10.2019 04:00:00 - 21.10.2019 04:00:00 (CEST)Besancon, France (7288): Direction du vent: 15.10.2019 04:00:00 - 21.10.2019 04:00:00 (CEST)Besancon, France (7288): reduced air pressure: 15.10.2019 04:00:00 - 21.10.2019 04:00:00 (CEST)Besancon, France (7288): Ensoleillement: 15.10.2019 04:00:00 - 21.10.2019 04:00:00 (CEST)Besancon, France (7288): Quantités de précipitations: 15.10.2019 04:00:00 - 21.10.2019 04:00:00 (CEST)
Date & Time tt [°C] td [°C] tt 5cm [°C] tt -20cm [°C] tt -100cm [°C] ff [km/h] ff [knt] fx [km/h] fx [knt] dd ppp [hPa] sd [min] rr [mm]
21.10.2019 04:00:00 13,1 12,5 12,5 14,7 15,5 4 2 22 12 S 1014,1 0 0,6
21.10.2019 03:00:00 13,4 12,8 12,7 14,6 15,5 4 2 13 7 SW 1013,1 0 0,4
21.10.2019 02:00:00 13,6 13,1 12,9 14,6 15,5 2 1 15 8 SSE 1012,3 0 3,7
21.10.2019 01:00:00 13,8 13,2 13,1 14,7 15,5 4 2 16 8 SSW 1011,3 0 2,0
21.10.2019 00:00:00 13,6 13,3 12,9 14,7 15,5 2 1 9 5 SE 1010,7 0 3,0
20.10.2019 23:00:00 13,4 13,1 12,7 14,7 15,6 3 2 9 5 ENE 1010,8 0 2,2
20.10.2019 22:00:00 13,4 13,1 12,7 14,7 15,5 2 1 44 24 NE 1010,6 0 10,4
20.10.2019 21:00:00 14,7 14,2 13,4 14,7 15,5 13 7 40 21 WSW 1011,4 0 0,2
20.10.2019 20:00:00 14,6 13,8 12,8 14,7 15,6 4 2 9 5 NNW 1006,8 0 0,0
20.10.2019 19:00:00 14,7 14,1 13,5 14,6 15,5 0 0 11 6 N 1006,5 0 0,0
20.10.2019 18:00:00 15,0 14,2 13,9 14,6 15,5 0 0 6 4 N 1006,4 0 0,0
20.10.2019 17:00:00 15,0 14,0 14,9 14,6 15,6 0 0 6 3 N 1006,1 0 0,0
20.10.2019 16:00:00 15,4 14,3 14,8 14,5 15,6 5 3 29 16 ESE 1005,6 0 0,0
20.10.2019 15:00:00 16,0 14,2 16,2 14,5 15,6 0 0 10 6 N 1005,8 0 0,0
20.10.2019 14:00:00 15,1 13,8 16,3 14,5 15,5 4 2 8 4 N 1005,9 0 0,0
20.10.2019 13:00:00 14,5 13,0 14,9 14,5 15,5 3 1 12 6 S 1006,1 0 0,0
20.10.2019 12:00:00 13,8 13,0 14,2 14,5 15,6 0 0 7 4 N 1006,7 0 0,0
20.10.2019 11:00:00 13,3 12,8 13,6 14,5 15,5 2 1 9 5 NNE 1006,4 0 0,0
20.10.2019 10:00:00 12,9 12,6 12,9 14,5 15,6 4 2 8 4 NNE 1006,0 0 0,0
20.10.2019 09:00:00 12,6 12,4 11,2 14,6 15,6 0 0 7 4 N 1005,8 0 0,0
20.10.2019 08:00:00 12,4 12,2 11,3 14,6 15,6 0 0 5 3 N 1005,8 0 0,0
20.10.2019 07:00:00 12,3 12,1 11,3 14,6 15,6 0 0 3 2 N 1006,3 0 0,0
20.10.2019 06:00:00 12,3 12,1 10,2 14,6 15,6 0 0 5 3 N 1006,4 0 0,0
20.10.2019 05:00:00 12,2 12,0 10,7 14,6 15,6 0 0 4 2 N 1006,5 0 0,0
20.10.2019 04:00:00 12,3 12,1 11,2 14,6 15,6 0 0 5 3 N 1006,6 0 0,0
20.10.2019 03:00:00 12,2 12,0 10,4 14,7 15,6 0 0 5 3 N 1006,7 0 0,0
20.10.2019 02:00:00 12,3 12,1 11,0 14,7 15,6 0 0 6 3 N 1006,8 0 0,0
20.10.2019 01:00:00 12,4 12,2 11,6 14,7 15,6 3 1 8 4 NNE 1007,0 0 2,6
20.10.2019 00:00:00 12,3 12,1 12,0 14,8 15,6 0 0 6 3 N 1007,9 0 1,2
19.10.2019 23:00:00 12,1 11,9 11,7 14,8 15,6 0 0 4 2 N 1008,2 0 1,2
19.10.2019 22:00:00 12,0 11,8 11,4 14,8 15,6 0 0 5 3 N 1008,7 0 0,6
19.10.2019 21:00:00 12,0 11,7 11,6 14,9 15,6 0 0 7 4 N 1008,9 0 1,0
19.10.2019 20:00:00 12,0 11,7 11,6 15,0 15,6 0 0 11 6 N 1008,9 0 9,5
19.10.2019 19:00:00 12,2 11,9 11,8 15,0 15,6 0 0 5 3 N 1008,7 0 3,6
19.10.2019 18:00:00 12,3 11,8 12,0 14,9 15,6 0 0 9 5 N 1007,8 0 3,8
19.10.2019 17:00:00 12,7 12,4 12,5 14,9 15,6 3 1 8 4 SSE 1008,8 0 3,9
19.10.2019 16:00:00 13,2 12,3 12,8 14,8 15,6 3 1 8 4 S 1008,7 0 1,6
19.10.2019 15:00:00 14,3 12,8 13,5 14,8 15,6 2 1 13 7 S 1008,1 0 1,2
19.10.2019 14:00:00 15,5 13,5 16,2 14,8 15,6 3 1 10 5 SSW 1008,4 0 0,0
19.10.2019 13:00:00 15,1 13,0 16,5 14,8 15,6 2 1 7 4 SSE 1008,5 0 0,0
19.10.2019 12:00:00 14,4 13,1 14,5 14,8 15,6 2 1 15 8 SSW 1009,5 0 0,0
19.10.2019 11:00:00 14,0 13,4 13,3 14,8 15,6 7 4 24 13 SSW 1009,6 0 1,6
19.10.2019 10:00:00 13,2 13,2 12,6 14,9 15,6 2 1 11 6 SW 1009,9 0 0,4
19.10.2019 09:00:00 12,5 12,3 10,9 14,9 15,6 4 2 6 3 NNE 1009,6 0 0,0
19.10.2019 08:00:00 12,3 12,1 10,6 14,9 15,6 2 1 6 3 NE 1009,0 0 0,0
19.10.2019 07:00:00 12,4 12,1 10,7 15,0 15,7 0 0 4 2 N 1009,3 0 0,0
19.10.2019 06:00:00 12,6 12,4 12,3 15,0 15,6 0 0 3 2 N 1009,4 0 0,0
19.10.2019 05:00:00 12,5 12,2 12,0 15,1 15,7 0 0 14 8 N 1009,6 0 5,3
19.10.2019 04:00:00 12,5 12,2 12,0 15,1 15,7 0 0 8 4 N 1010,3 0 7,5
19.10.2019 03:00:00 12,7 12,2 11,7 15,2 15,7 4 2 8 4 N 1010,2 0 2,4
19.10.2019 02:00:00 12,7 12,2 11,8 15,2 15,6 0 0 7 4 N 1010,9 0 1,6
19.10.2019 01:00:00 13,2 12,1 12,1 15,2 15,7 2 1 8 4 S 1011,9 0 1,0
19.10.2019 00:00:00 13,0 11,7 12,0 15,2 15,7 0 0 4 2 N 1011,8 0 0,0
18.10.2019 23:00:00 13,0 12,1 11,7 15,2 15,7 0 0 0 0 N 1012,4 0 0,0
18.10.2019 22:00:00 13,1 12,0 11,8 15,2 15,7 0 0 6 3 N 1012,8 0 0,0
18.10.2019 21:00:00 13,2 12,1 11,8 15,2 15,7 0 0 3 2 N 1013,0 0 0,0
18.10.2019 20:00:00 13,5 12,2 12,1 15,2 15,7 0 0 9 5 N 1013,2 0 0,0
18.10.2019 19:00:00 14,2 12,1 12,8 15,1 15,6 4 2 14 7 SSW 1013,2 0 0,0
18.10.2019 18:00:00 15,1 11,9 14,1 15,1 15,7 3 1 16 9 S 1013,0 0 0,0
18.10.2019 17:00:00 15,7 12,3 15,3 15,0 15,7 6 3 19 11 SSW 1013,0 0 0,0
18.10.2019 16:00:00 16,5 12,6 17,4 15,0 15,7 9 5 27 14 SW 1013,0 5 0,0
18.10.2019 15:00:00 17,4 12,9 18,2 14,9 15,7 9 5 24 13 SW 1013,0 24 0,0
18.10.2019 14:00:00 16,0 13,1 14,9 14,9 15,7 10 6 24 13 SW 1013,6 11 0,0
18.10.2019 13:00:00 14,8 13,2 14,5 14,9 15,7 9 5 22 12 SSW 1014,0 0 0,0
18.10.2019 12:00:00 14,5 13,4 13,8 14,9 15,7 11 6 31 17 WSW 1013,8 0 2,4
18.10.2019 11:00:00 17,3 11,6 17,5 14,9 15,7 13 7 29 16 SW 1012,6 21 0,0
18.10.2019 10:00:00 16,1 11,0 14,3 14,9 15,7 10 5 22 12 SW 1012,6 12 0,0
18.10.2019 09:00:00 15,1 11,1 11,8 15,0 15,7 8 4 19 10 SW 1012,7 0 0,0
18.10.2019 08:00:00 13,9 10,9 10,1 15,0 15,7 3 2 8 4 SW 1012,2 0 0,0
18.10.2019 07:00:00 14,4 11,2 11,7 15,0 15,7 2 1 10 6 W 1012,4 0 0,0
18.10.2019 06:00:00 14,9 11,1 11,7 15,1 15,7 5 3 18 10 SSW 1012,7 0 0,0
18.10.2019 05:00:00 14,3 11,3 10,9 15,1 15,7 6 3 15 8 SSW 1013,2 0 0,0
18.10.2019 04:00:00 13,8 11,7 10,4 15,1 15,7 3 2 9 5 SSW 1013,6 0 0,0
18.10.2019 03:00:00 14,0 12,4 10,9 15,1 15,7 3 1 11 6 SSW 1014,2 0 0,0
18.10.2019 02:00:00 15,0 12,7 13,0 15,1 15,7 5 3 14 8 SSW 1014,5 0 0,0
18.10.2019 01:00:00 14,8 12,7 13,0 15,1 15,7 4 2 18 10 SSW 1014,4 0 0,0
18.10.2019 00:00:00 14,9 12,8 13,6 15,1 15,7 6 3 16 9 SW 1014,8 0 0,0
17.10.2019 23:00:00 14,8 13,0 13,1 15,1 15,7 5 3 17 9 SSW 1015,0 0 0,0
17.10.2019 22:00:00 14,6 13,1 13,3 15,1 15,7 5 3 19 11 SSW 1014,9 0 0,0
17.10.2019 21:00:00 14,2 13,2 13,2 15,1 15,7 3 2 14 8 SSW 1015,2 0 0,0
17.10.2019 20:00:00 14,0 13,0 13,1 15,1 15,7 6 3 15 8 SSW 1015,2 0 0,0
17.10.2019 19:00:00 14,2 13,1 13,5 15,1 15,8 9 5 27 15 SSW 1015,0 0 0,6
17.10.2019 18:00:00 14,3 13,8 14,0 15,0 15,7 4 2 15 8 S 1014,8 0 1,2
17.10.2019 17:00:00 14,1 13,5 14,1 15,0 15,7 6 3 21 12 WSW 1015,1 0 0,8
17.10.2019 16:00:00 14,4 13,4 14,1 14,9 15,7 6 4 26 14 SW 1015,0 0 0,0
17.10.2019 15:00:00 15,1 13,0 14,7 14,8 15,8 11 6 47 26 SW 1014,9 0 0,0
17.10.2019 14:00:00 17,6 10,9 18,3 14,8 15,7 21 11 50 27 SW 1014,3 0 0,0
17.10.2019 13:00:00 18,2 10,3 19,1 14,7 15,8 10 6 36 19 SSW 1014,3 14 0,0
17.10.2019 12:00:00 18,6 9,9 19,7 14,7 15,8 17 9 44 24 SSW 1014,1 34 0,0
17.10.2019 11:00:00 17,5 8,9 - 14,7 15,7 11 6 26 14 SSW 1014,5 49 -
17.10.2019 10:00:00 15,5 10,5 14,4 14,8 15,8 5 3 15 8 SSW 1015,1 14 0,0
17.10.2019 09:00:00 14,2 9,6 12,0 14,8 15,8 2 1 9 5 SW 1015,4 0 0,0
17.10.2019 08:00:00 13,4 9,6 11,1 14,8 15,7 3 2 11 6 SSW 1015,2 0 0,0
17.10.2019 07:00:00 12,9 9,2 11,1 14,8 15,7 0 0 9 5 N 1015,3 0 0,0
17.10.2019 06:00:00 13,1 9,0 11,5 14,8 15,8 4 2 10 5 WSW 1015,7 0 0,0
17.10.2019 05:00:00 14,1 8,7 12,1 14,9 15,8 5 3 21 11 SSW 1015,6 0 0,0
17.10.2019 04:00:00 14,8 8,3 12,8 14,9 15,8 10 5 26 14 SW 1015,7 0 0,0
17.10.2019 03:00:00 14,3 8,0 11,0 14,9 15,8 7 4 18 10 SSW 1015,4 0 0,0
17.10.2019 02:00:00 13,0 7,4 10,9 14,9 15,8 2 1 11 6 SSW 1015,4 0 0,0
17.10.2019 01:00:00 14,2 6,8 10,9 15,0 15,8 4 2 14 7 SW 1014,8 0 0,0
17.10.2019 00:00:00 13,7 6,8 9,3 15,0 15,8 3 2 10 6 SSW 1014,6 0 0,0
16.10.2019 23:00:00 12,3 6,6 6,7 15,0 15,8 0 0 6 4 N 1014,6 0 0,0
16.10.2019 22:00:00 10,9 7,6 6,4 15,1 15,8 0 0 3 1 N 1014,6 0 0,0
16.10.2019 21:00:00 11,6 8,3 6,4 15,1 15,8 0 0 4 2 N 1014,6 0 0,0
16.10.2019 20:00:00 13,1 7,5 7,1 15,0 15,8 2 1 5 3 SSW 1014,6 0 0,0
16.10.2019 19:00:00 14,4 7,4 8,3 15,0 15,8 0 0 13 7 N 1014,1 22 0,0
16.10.2019 18:00:00 17,9 6,4 17,0 14,9 15,8 7 4 25 13 SW 1013,5 52 0,0
16.10.2019 17:00:00 18,6 6,4 20,6 14,8 15,8 11 6 29 15 SSW 1013,5 60 0,0
16.10.2019 16:00:00 18,8 6,9 21,6 14,7 15,8 10 5 23 13 SW 1013,9 60 0,0
16.10.2019 15:00:00 18,7 7,5 22,9 14,7 15,8 8 4 28 15 SSW 1014,5 60 0,0
16.10.2019 14:00:00 17,4 6,6 23,0 14,7 15,8 13 7 29 15 SW 1015,2 60 0,0
16.10.2019 13:00:00 16,4 7,1 23,8 14,7 15,8 14 7 27 14 SW 1015,8 60 0,0
16.10.2019 12:00:00 15,3 5,8 21,7 14,7 15,8 12 7 29 16 SSW 1016,4 60 0,0
16.10.2019 11:00:00 14,3 6,9 16,4 14,7 15,8 8 4 21 12 SW 1016,9 60 0,0
16.10.2019 10:00:00 11,8 6,7 7,3 14,8 15,8 5 3 14 8 SW 1017,3 54 0,0
16.10.2019 09:00:00 9,8 7,0 6,2 14,9 15,8 3 2 7 4 S 1017,3 19 0,0
16.10.2019 08:00:00 9,7 7,3 7,3 14,9 15,8 0 0 9 5 N 1016,9 0 0,0
16.10.2019 07:00:00 10,0 7,8 8,5 15,0 15,8 0 0 10 6 N 1017,0 0 0,0
16.10.2019 06:00:00 9,8 7,7 7,7 15,1 15,8 3 1 16 9 SSW 1017,3 0 0,0
16.10.2019 05:00:00 10,1 7,7 7,7 15,1 15,8 5 3 19 10 SSW 1017,2 0 0,0
16.10.2019 04:00:00 10,1 7,9 7,3 15,2 15,8 5 3 15 8 SSW 1017,4 0 0,0
16.10.2019 03:00:00 10,4 8,0 8,3 15,2 15,8 7 4 17 9 SSW 1017,7 0 0,0
16.10.2019 02:00:00 10,3 8,2 8,3 15,3 15,8 6 3 19 10 SSW 1017,9 0 0,0
16.10.2019 01:00:00 10,7 8,5 9,0 15,3 15,7 7 4 17 9 SSW 1017,6 0 0,0
16.10.2019 00:00:00 10,3 9,1 7,7 15,3 15,8 6 3 18 10 SSW 1017,4 0 0,0
15.10.2019 23:00:00 10,5 8,9 8,7 15,4 15,8 11 6 23 12 SW 1017,2 0 0,0
15.10.2019 22:00:00 10,9 9,8 9,9 15,4 15,8 11 6 29 16 SSW 1016,3 0 0,2
15.10.2019 21:00:00 11,1 10,2 10,4 15,5 15,8 9 5 27 15 SSW 1015,5 0 0,0
15.10.2019 20:00:00 11,0 10,2 10,1 15,5 15,8 13 7 25 13 SW 1014,6 0 0,0
15.10.2019 19:00:00 11,1 10,2 10,7 15,5 15,8 9 5 34 19 SSW 1014,0 0 1,0
15.10.2019 18:00:00 11,9 10,8 11,5 15,5 15,8 15 8 35 19 SW 1011,8 0 1,3
15.10.2019 17:00:00 12,7 11,8 12,3 15,5 15,8 11 6 24 13 SSW 1010,6 0 0,6
15.10.2019 16:00:00 12,5 11,7 12,4 15,5 15,8 10 6 23 12 SW 1010,3 0 3,2
15.10.2019 15:00:00 12,7 11,6 13,0 15,5 15,8 6 3 20 11 WSW 1009,9 0 0,8
15.10.2019 14:00:00 13,1 12,0 13,5 15,5 15,8 6 4 13 7 SSW 1009,9 0 0,0
15.10.2019 13:00:00 12,7 11,8 12,8 15,5 15,7 5 3 12 7 WSW 1010,3 0 1,6
15.10.2019 12:00:00 13,0 12,1 12,8 15,6 15,8 4 2 13 7 SW 1010,6 0 2,2
15.10.2019 11:00:00 13,1 12,5 13,0 15,6 15,8 0 0 5 3 N 1010,5 0 1,8
15.10.2019 10:00:00 12,9 12,3 12,6 15,6 15,8 0 0 5 3 N 1010,3 0 1,2
15.10.2019 09:00:00 12,7 11,9 12,2 15,7 15,8 0 0 6 3 N 1009,9 0 2,5
15.10.2019 08:00:00 12,8 11,9 12,2 15,7 15,7 3 1 19 11 SW 1009,8 0 3,6
15.10.2019 07:00:00 13,4 12,1 12,7 15,7 15,7 6 3 22 12 WNW 1008,2 0 0,2
15.10.2019 06:00:00 13,9 12,5 12,4 15,7 15,7 0 0 7 4 N 1008,1 0 0,4
15.10.2019 05:00:00 14,0 12,2 11,5 15,8 15,8 0 0 3 2 N 1007,8 0 0,0
15.10.2019 04:00:00 13,6 12,0 9,6 15,9 15,7 0 0 6 4 N 1007,5 0 0,0

tt = Température de l'air
td = dewpoint
tt 5cm = Température de l'air 5cm
tt -20cm = Température de l'air -20cm
tt -100cm = Température de l'air -100cm
ff = Vitesse du vent
fx = gusts
dd = Direction du vent
ppp = reduced air pressure
sd = Ensoleillement
rr = Quantités de précipitations

stations d'obs. à proximité